sensor_id;sensor_type;location;lat;lon;timestamp;temperature;humidity
67161;DHT22;54088;52.238;21.104;2022-12-07T00:01:26;4.00;94.40
67161;DHT22;54088;52.238;21.104;2022-12-07T00:03:54;4.00;94.30
67161;DHT22;54088;52.238;21.104;2022-12-07T00:06:22;4.00;94.20
67161;DHT22;54088;52.238;21.104;2022-12-07T00:08:48;4.00;94.20
67161;DHT22;54088;52.238;21.104;2022-12-07T00:11:23;4.00;94.30
67161;DHT22;54088;52.238;21.104;2022-12-07T00:13:54;4.00;94.30
67161;DHT22;54088;52.238;21.104;2022-12-07T00:16:20;4.00;94.20
67161;DHT22;54088;52.238;21.104;2022-12-07T00:18:47;4.00;94.20
67161;DHT22;54088;52.238;21.104;2022-12-07T00:21:15;4.00;94.10
67161;DHT22;54088;52.238;21.104;2022-12-07T00:23:43;3.90;94.10
67161;DHT22;54088;52.238;21.104;2022-12-07T00:26:34;3.90;94.20
67161;DHT22;54088;52.238;21.104;2022-12-07T00:29:04;3.90;94.30
67161;DHT22;54088;52.238;21.104;2022-12-07T00:31:33;3.90;94.30
67161;DHT22;54088;52.238;21.104;2022-12-07T00:34:00;3.90;94.40
67161;DHT22;54088;52.238;21.104;2022-12-07T00:36:26;4.00;94.40
67161;DHT22;54088;52.238;21.104;2022-12-07T00:38:52;4.00;94.40
67161;DHT22;54088;52.238;21.104;2022-12-07T00:41:20;4.00;94.40
67161;DHT22;54088;52.238;21.104;2022-12-07T00:43:48;4.00;94.40
67161;DHT22;54088;52.238;21.104;2022-12-07T00:46:15;4.00;94.40
67161;DHT22;54088;52.238;21.104;2022-12-07T00:48:41;4.00;94.40
67161;DHT22;54088;52.238;21.104;2022-12-07T00:51:07;4.10;94.50
67161;DHT22;54088;52.238;21.104;2022-12-07T00:53:35;4.10;94.50
67161;DHT22;54088;52.238;21.104;2022-12-07T00:56:08;4.10;94.40
67161;DHT22;54088;52.238;21.104;2022-12-07T00:58:34;4.10;94.50
67161;DHT22;54088;52.238;21.104;2022-12-07T01:01:02;4.10;94.30
67161;DHT22;54088;52.238;21.104;2022-12-07T01:03:29;4.10;94.40
67161;DHT22;54088;52.238;21.104;2022-12-07T01:05:56;4.20;94.40
67161;DHT22;54088;52.238;21.104;2022-12-07T01:08:22;4.20;94.40
67161;DHT22;54088;52.238;21.104;2022-12-07T01:10:49;4.20;94.40
67161;DHT22;54088;52.238;21.104;2022-12-07T01:13:15;4.20;94.30
67161;DHT22;54088;52.238;21.104;2022-12-07T01:15:44;4.10;94.50
67161;DHT22;54088;52.238;21.104;2022-12-07T01:18:11;4.10;94.60
67161;DHT22;54088;52.238;21.104;2022-12-07T01:20:37;4.10;94.50
67161;DHT22;54088;52.238;21.104;2022-12-07T01:23:03;4.10;94.50
67161;DHT22;54088;52.238;21.104;2022-12-07T01:25:29;4.00;94.50
67161;DHT22;54088;52.238;21.104;2022-12-07T01:27:54;4.00;94.60
67161;DHT22;54088;52.238;21.104;2022-12-07T01:30:20;3.90;94.80
67161;DHT22;54088;52.238;21.104;2022-12-07T01:32:46;3.90;94.90
67161;DHT22;54088;52.238;21.104;2022-12-07T01:35:11;3.80;94.60
67161;DHT22;54088;52.238;21.104;2022-12-07T01:37:38;3.80;94.80
67161;DHT22;54088;52.238;21.104;2022-12-07T01:40:06;3.80;94.90
67161;DHT22;54088;52.238;21.104;2022-12-07T01:42:32;3.80;94.80
67161;DHT22;54088;52.238;21.104;2022-12-07T01:45:34;3.80;94.90
67161;DHT22;54088;52.238;21.104;2022-12-07T01:48:02;3.80;95.00
67161;DHT22;54088;52.238;21.104;2022-12-07T01:50:29;3.80;95.00
67161;DHT22;54088;52.238;21.104;2022-12-07T01:53:00;3.80;95.00
67161;DHT22;54088;52.238;21.104;2022-12-07T01:55:27;3.80;95.00
67161;DHT22;54088;52.238;21.104;2022-12-07T01:57:53;3.90;95.10
67161;DHT22;54088;52.238;21.104;2022-12-07T02:00:20;3.90;95.10
67161;DHT22;54088;52.238;21.104;2022-12-07T02:03:15;3.90;95.10
67161;DHT22;54088;52.238;21.104;2022-12-07T02:05:41;4.00;94.90
67161;DHT22;54088;52.238;21.104;2022-12-07T02:08:07;4.00;95.20
67161;DHT22;54088;52.238;21.104;2022-12-07T02:10:33;4.10;94.90
67161;DHT22;54088;52.238;21.104;2022-12-07T02:29:17;4.10;95.50
67161;DHT22;54088;52.238;21.104;2022-12-07T02:32:08;4.00;95.50
67161;DHT22;54088;52.238;21.104;2022-12-07T02:37:34;4.10;95.90
67161;DHT22;54088;52.238;21.104;2022-12-07T02:40:18;4.20;96.00
67161;DHT22;54088;52.238;21.104;2022-12-07T02:42:49;4.30;95.90
67161;DHT22;54088;52.238;21.104;2022-12-07T02:45:18;4.20;95.60
67161;DHT22;54088;52.238;21.104;2022-12-07T02:47:49;4.20;95.70
67161;DHT22;54088;52.238;21.104;2022-12-07T02:50:21;4.30;95.80
67161;DHT22;54088;52.238;21.104;2022-12-07T02:52:47;4.30;95.70
67161;DHT22;54088;52.238;21.104;2022-12-07T02:55:15;4.30;95.70
67161;DHT22;54088;52.238;21.104;2022-12-07T02:58:01;4.30;95.60
67161;DHT22;54088;52.238;21.104;2022-12-07T03:00:35;4.30;95.60
67161;DHT22;54088;52.238;21.104;2022-12-07T03:03:09;4.30;95.60
67161;DHT22;54088;52.238;21.104;2022-12-07T03:05:58;4.20;95.60
67161;DHT22;54088;52.238;21.104;2022-12-07T03:11:16;4.20;95.70
67161;DHT22;54088;52.238;21.104;2022-12-07T03:13:49;4.20;95.40
67161;DHT22;54088;52.238;21.104;2022-12-07T03:16:20;4.10;95.60
67161;DHT22;54088;52.238;21.104;2022-12-07T03:21:24;4.00;95.60
67161;DHT22;54088;52.238;21.104;2022-12-07T03:23:53;4.10;95.70
67161;DHT22;54088;52.238;21.104;2022-12-07T03:26:20;4.00;95.70
67161;DHT22;54088;52.238;21.104;2022-12-07T03:28:52;4.10;95.60
67161;DHT22;54088;52.238;21.104;2022-12-07T03:31:23;4.20;95.50
67161;DHT22;54088;52.238;21.104;2022-12-07T03:36:25;4.20;95.60
67161;DHT22;54088;52.238;21.104;2022-12-07T03:41:37;4.20;95.30
67161;DHT22;54088;52.238;21.104;2022-12-07T03:44:04;4.10;95.20
67161;DHT22;54088;52.238;21.104;2022-12-07T03:49:26;4.20;95.20
67161;DHT22;54088;52.238;21.104;2022-12-07T03:54:44;4.20;95.00
67161;DHT22;54088;52.238;21.104;2022-12-07T03:57:12;4.10;94.90
67161;DHT22;54088;52.238;21.104;2022-12-07T03:59:39;4.10;95.00
67161;DHT22;54088;52.238;21.104;2022-12-07T04:02:06;4.10;95.00
67161;DHT22;54088;52.238;21.104;2022-12-07T04:04:33;4.10;95.00
67161;DHT22;54088;52.238;21.104;2022-12-07T04:06:59;4.10;95.00
67161;DHT22;54088;52.238;21.104;2022-12-07T04:09:25;4.10;95.00
67161;DHT22;54088;52.238;21.104;2022-12-07T04:11:51;4.10;94.90
67161;DHT22;54088;52.238;21.104;2022-12-07T04:14:17;4.10;94.80
67161;DHT22;54088;52.238;21.104;2022-12-07T04:16:47;4.20;94.80
67161;DHT22;54088;52.238;21.104;2022-12-07T04:19:13;4.20;94.80
67161;DHT22;54088;52.238;21.104;2022-12-07T04:21:39;4.20;94.60
67161;DHT22;54088;52.238;21.104;2022-12-07T04:24:05;4.10;94.70
67161;DHT22;54088;52.238;21.104;2022-12-07T04:26:30;4.10;94.90
67161;DHT22;54088;52.238;21.104;2022-12-07T04:28:56;4.10;94.70
67161;DHT22;54088;52.238;21.104;2022-12-07T04:31:22;4.10;94.70
67161;DHT22;54088;52.238;21.104;2022-12-07T04:33:48;4.10;94.70
67161;DHT22;54088;52.238;21.104;2022-12-07T04:36:13;4.10;94.60
67161;DHT22;54088;52.238;21.104;2022-12-07T04:38:39;4.10;94.60
67161;DHT22;54088;52.238;21.104;2022-12-07T04:41:06;4.10;94.60
67161;DHT22;54088;52.238;21.104;2022-12-07T04:43:32;4.10;94.60
67161;DHT22;54088;52.238;21.104;2022-12-07T04:45:58;4.10;94.40
67161;DHT22;54088;52.238;21.104;2022-12-07T04:48:24;4.10;94.50
67161;DHT22;54088;52.238;21.104;2022-12-07T04:50:49;4.10;94.50
67161;DHT22;54088;52.238;21.104;2022-12-07T04:53:15;4.10;94.50
67161;DHT22;54088;52.238;21.104;2022-12-07T04:55:41;4.10;94.50
67161;DHT22;54088;52.238;21.104;2022-12-07T04:58:07;4.10;94.60
67161;DHT22;54088;52.238;21.104;2022-12-07T05:00:32;4.10;94.50
67161;DHT22;54088;52.238;21.104;2022-12-07T05:02:58;4.10;94.60
67161;DHT22;54088;52.238;21.104;2022-12-07T05:05:24;4.10;94.50
67161;DHT22;54088;52.238;21.104;2022-12-07T05:07:50;4.00;94.50
67161;DHT22;54088;52.238;21.104;2022-12-07T05:10:16;3.90;94.50
67161;DHT22;54088;52.238;21.104;2022-12-07T05:12:42;3.90;94.70
67161;DHT22;54088;52.238;21.104;2022-12-07T05:15:08;3.90;94.70
67161;DHT22;54088;52.238;21.104;2022-12-07T05:17:33;4.00;94.60
67161;DHT22;54088;52.238;21.104;2022-12-07T05:19:59;4.00;94.70
67161;DHT22;54088;52.238;21.104;2022-12-07T05:22:25;3.90;94.70
67161;DHT22;54088;52.238;21.104;2022-12-07T05:24:54;3.90;94.80
67161;DHT22;54088;52.238;21.104;2022-12-07T05:27:20;3.90;94.70
67161;DHT22;54088;52.238;21.104;2022-12-07T05:29:45;3.90;94.60
67161;DHT22;54088;52.238;21.104;2022-12-07T05:32:11;3.90;94.60
67161;DHT22;54088;52.238;21.104;2022-12-07T05:34:37;3.90;94.60
67161;DHT22;54088;52.238;21.104;2022-12-07T05:37:03;3.90;94.50
67161;DHT22;54088;52.238;21.104;2022-12-07T05:39:28;3.90;94.50
67161;DHT22;54088;52.238;21.104;2022-12-07T05:41:54;3.90;94.30
67161;DHT22;54088;52.238;21.104;2022-12-07T05:44:42;3.90;94.40
67161;DHT22;54088;52.238;21.104;2022-12-07T05:47:09;3.90;94.30
67161;DHT22;54088;52.238;21.104;2022-12-07T05:49:34;3.80;94.30
67161;DHT22;54088;52.238;21.104;2022-12-07T05:52:00;3.80;94.40
67161;DHT22;54088;52.238;21.104;2022-12-07T05:54:26;3.80;94.30
67161;DHT22;54088;52.238;21.104;2022-12-07T05:56:52;3.80;94.20
67161;DHT22;54088;52.238;21.104;2022-12-07T05:59:17;3.80;94.30
67161;DHT22;54088;52.238;21.104;2022-12-07T06:01:57;3.80;94.30
67161;DHT22;54088;52.238;21.104;2022-12-07T06:04:25;3.70;94.20
67161;DHT22;54088;52.238;21.104;2022-12-07T06:06:51;3.70;94.30
67161;DHT22;54088;52.238;21.104;2022-12-07T06:09:17;3.70;94.20
67161;DHT22;54088;52.238;21.104;2022-12-07T06:11:44;3.60;94.20
67161;DHT22;54088;52.238;21.104;2022-12-07T06:14:28;3.70;94.40
67161;DHT22;54088;52.238;21.104;2022-12-07T06:16:54;3.70;94.40
67161;DHT22;54088;52.238;21.104;2022-12-07T06:19:20;3.70;94.30
67161;DHT22;54088;52.238;21.104;2022-12-07T06:21:45;3.70;94.30
67161;DHT22;54088;52.238;21.104;2022-12-07T06:24:12;3.70;94.30
67161;DHT22;54088;52.238;21.104;2022-12-07T06:26:38;3.70;94.30
67161;DHT22;54088;52.238;21.104;2022-12-07T06:29:04;3.70;94.20
67161;DHT22;54088;52.238;21.104;2022-12-07T06:31:30;3.60;94.20
67161;DHT22;54088;52.238;21.104;2022-12-07T06:34:04;3.60;94.30
67161;DHT22;54088;52.238;21.104;2022-12-07T06:36:30;3.60;94.30
67161;DHT22;54088;52.238;21.104;2022-12-07T06:38:56;3.60;94.30
67161;DHT22;54088;52.238;21.104;2022-12-07T06:41:23;3.60;94.30
67161;DHT22;54088;52.238;21.104;2022-12-07T06:43:48;3.60;94.20
67161;DHT22;54088;52.238;21.104;2022-12-07T06:46:15;3.60;94.30
67161;DHT22;54088;52.238;21.104;2022-12-07T06:48:41;3.50;94.10
67161;DHT22;54088;52.238;21.104;2022-12-07T06:51:08;3.50;94.20
67161;DHT22;54088;52.238;21.104;2022-12-07T06:53:34;3.50;94.20
67161;DHT22;54088;52.238;21.104;2022-12-07T06:55:59;3.50;94.20
67161;DHT22;54088;52.238;21.104;2022-12-07T06:58:25;3.50;94.10
67161;DHT22;54088;52.238;21.104;2022-12-07T07:00:51;3.50;94.10
67161;DHT22;54088;52.238;21.104;2022-12-07T07:03:17;3.50;94.20
67161;DHT22;54088;52.238;21.104;2022-12-07T07:05:43;3.60;94.20
67161;DHT22;54088;52.238;21.104;2022-12-07T07:08:09;3.50;94.10
67161;DHT22;54088;52.238;21.104;2022-12-07T07:10:35;3.50;94.10
67161;DHT22;54088;52.238;21.104;2022-12-07T07:13:01;3.60;94.20
67161;DHT22;54088;52.238;21.104;2022-12-07T07:15:27;3.60;94.10
67161;DHT22;54088;52.238;21.104;2022-12-07T07:17:53;3.60;94.00
67161;DHT22;54088;52.238;21.104;2022-12-07T07:20:19;3.60;94.10
67161;DHT22;54088;52.238;21.104;2022-12-07T07:22:45;3.60;94.00
67161;DHT22;54088;52.238;21.104;2022-12-07T07:25:10;3.60;94.10
67161;DHT22;54088;52.238;21.104;2022-12-07T07:27:36;3.60;94.00
67161;DHT22;54088;52.238;21.104;2022-12-07T07:30:02;3.60;93.90
67161;DHT22;54088;52.238;21.104;2022-12-07T07:32:28;3.50;94.10
67161;DHT22;54088;52.238;21.104;2022-12-07T07:34:53;3.60;94.20
67161;DHT22;54088;52.238;21.104;2022-12-07T07:37:19;3.60;94.10
67161;DHT22;54088;52.238;21.104;2022-12-07T07:39:44;3.60;94.10
67161;DHT22;54088;52.238;21.104;2022-12-07T07:42:10;3.60;94.10
67161;DHT22;54088;52.238;21.104;2022-12-07T07:44:36;3.60;94.10
67161;DHT22;54088;52.238;21.104;2022-12-07T07:47:02;3.50;94.00
67161;DHT22;54088;52.238;21.104;2022-12-07T07:49:27;3.50;94.30
67161;DHT22;54088;52.238;21.104;2022-12-07T07:51:53;3.50;94.40
67161;DHT22;54088;52.238;21.104;2022-12-07T07:54:19;3.50;94.60
67161;DHT22;54088;52.238;21.104;2022-12-07T07:56:44;3.50;94.40
67161;DHT22;54088;52.238;21.104;2022-12-07T07:59:10;3.50;94.50
67161;DHT22;54088;52.238;21.104;2022-12-07T08:01:35;3.60;94.50
67161;DHT22;54088;52.238;21.104;2022-12-07T08:04:01;3.60;94.50
67161;DHT22;54088;52.238;21.104;2022-12-07T08:06:27;3.60;94.60
67161;DHT22;54088;52.238;21.104;2022-12-07T08:08:52;3.70;94.60
67161;DHT22;54088;52.238;21.104;2022-12-07T08:11:18;3.70;94.50
67161;DHT22;54088;52.238;21.104;2022-12-07T08:13:45;3.80;94.50
67161;DHT22;54088;52.238;21.104;2022-12-07T08:16:12;3.80;94.40
67161;DHT22;54088;52.238;21.104;2022-12-07T08:18:40;3.70;94.40
67161;DHT22;54088;52.238;21.104;2022-12-07T08:21:07;3.60;94.60
67161;DHT22;54088;52.238;21.104;2022-12-07T08:23:34;3.70;94.80
67161;DHT22;54088;52.238;21.104;2022-12-07T08:26:05;3.70;94.80
67161;DHT22;54088;52.238;21.104;2022-12-07T08:28:31;3.80;94.80
67161;DHT22;54088;52.238;21.104;2022-12-07T08:31:01;3.80;94.80
67161;DHT22;54088;52.238;21.104;2022-12-07T08:33:27;3.80;94.70
67161;DHT22;54088;52.238;21.104;2022-12-07T08:35:53;3.80;94.80
67161;DHT22;54088;52.238;21.104;2022-12-07T08:38:18;3.70;95.00
67161;DHT22;54088;52.238;21.104;2022-12-07T08:40:44;3.70;95.20
67161;DHT22;54088;52.238;21.104;2022-12-07T08:43:10;3.70;95.40
67161;DHT22;54088;52.238;21.104;2022-12-07T08:45:35;3.70;95.40
67161;DHT22;54088;52.238;21.104;2022-12-07T08:48:07;3.70;95.40
67161;DHT22;54088;52.238;21.104;2022-12-07T08:50:33;3.70;95.70
67161;DHT22;54088;52.238;21.104;2022-12-07T08:53:00;3.80;95.80
67161;DHT22;54088;52.238;21.104;2022-12-07T08:55:27;3.80;95.80
67161;DHT22;54088;52.238;21.104;2022-12-07T08:57:53;3.90;95.70
67161;DHT22;54088;52.238;21.104;2022-12-07T09:00:19;3.90;95.60
67161;DHT22;54088;52.238;21.104;2022-12-07T09:02:45;3.90;95.80
67161;DHT22;54088;52.238;21.104;2022-12-07T09:05:12;4.00;95.80
67161;DHT22;54088;52.238;21.104;2022-12-07T09:07:40;4.00;95.90
67161;DHT22;54088;52.238;21.104;2022-12-07T09:10:07;4.10;95.90
67161;DHT22;54088;52.238;21.104;2022-12-07T09:12:33;4.10;95.60
67161;DHT22;54088;52.238;21.104;2022-12-07T09:14:58;4.10;95.40
67161;DHT22;54088;52.238;21.104;2022-12-07T09:17:26;4.10;95.50
67161;DHT22;54088;52.238;21.104;2022-12-07T09:19:51;4.10;95.10
67161;DHT22;54088;52.238;21.104;2022-12-07T09:22:17;4.20;95.10
67161;DHT22;54088;52.238;21.104;2022-12-07T09:24:43;4.20;94.60
67161;DHT22;54088;52.238;21.104;2022-12-07T09:27:11;4.20;94.50
67161;DHT22;54088;52.238;21.104;2022-12-07T09:29:37;4.20;94.50
67161;DHT22;54088;52.238;21.104;2022-12-07T09:32:02;4.20;94.30
67161;DHT22;54088;52.238;21.104;2022-12-07T09:34:31;4.20;94.30
67161;DHT22;54088;52.238;21.104;2022-12-07T09:36:57;4.30;94.40
67161;DHT22;54088;52.238;21.104;2022-12-07T09:39:23;4.30;94.10
67161;DHT22;54088;52.238;21.104;2022-12-07T09:41:49;4.40;94.00
67161;DHT22;54088;52.238;21.104;2022-12-07T09:44:20;4.40;94.10
67161;DHT22;54088;52.238;21.104;2022-12-07T09:46:47;4.50;94.00
67161;DHT22;54088;52.238;21.104;2022-12-07T09:49:21;4.60;93.80
67161;DHT22;54088;52.238;21.104;2022-12-07T09:51:48;4.60;93.60
67161;DHT22;54088;52.238;21.104;2022-12-07T09:54:24;4.60;93.60
67161;DHT22;54088;52.238;21.104;2022-12-07T09:56:50;4.70;93.30
67161;DHT22;54088;52.238;21.104;2022-12-07T09:59:17;4.60;93.10
67161;DHT22;54088;52.238;21.104;2022-12-07T10:01:45;4.50;93.00
67161;DHT22;54088;52.238;21.104;2022-12-07T10:04:19;4.60;93.20
67161;DHT22;54088;52.238;21.104;2022-12-07T10:06:46;4.60;93.10
67161;DHT22;54088;52.238;21.104;2022-12-07T10:09:15;4.60;93.10
67161;DHT22;54088;52.238;21.104;2022-12-07T10:14:27;4.70;92.70
67161;DHT22;54088;52.238;21.104;2022-12-07T10:16:53;4.70;92.70
67161;DHT22;54088;52.238;21.104;2022-12-07T10:19:45;4.80;92.20
67161;DHT22;54088;52.238;21.104;2022-12-07T10:22:16;4.70;91.90
67161;DHT22;54088;52.238;21.104;2022-12-07T10:24:43;4.70;92.00
67161;DHT22;54088;52.238;21.104;2022-12-07T10:27:30;4.70;91.90
67161;DHT22;54088;52.238;21.104;2022-12-07T10:29:57;4.90;92.00
67161;DHT22;54088;52.238;21.104;2022-12-07T10:35:24;5.10;91.80
67161;DHT22;54088;52.238;21.104;2022-12-07T10:37:52;5.20;91.60
67161;DHT22;54088;52.238;21.104;2022-12-07T10:40:33;5.10;91.20
67161;DHT22;54088;52.238;21.104;2022-12-07T10:48:58;5.00;90.80
67161;DHT22;54088;52.238;21.104;2022-12-07T10:52:01;5.00;90.70
67161;DHT22;54088;52.238;21.104;2022-12-07T10:57:32;4.90;90.90
67161;DHT22;54088;52.238;21.104;2022-12-07T11:00:17;4.90;90.60
67161;DHT22;54088;52.238;21.104;2022-12-07T11:05:35;4.90;90.60
67161;DHT22;54088;52.238;21.104;2022-12-07T11:11:16;4.90;90.70
67161;DHT22;54088;52.238;21.104;2022-12-07T11:13:40;4.90;90.90
67161;DHT22;54088;52.238;21.104;2022-12-07T11:16:36;5.00;90.80
67161;DHT22;54088;52.238;21.104;2022-12-07T11:19:46;5.00;90.70
67161;DHT22;54088;52.238;21.104;2022-12-07T11:31:19;5.00;90.40
67161;DHT22;54088;52.238;21.104;2022-12-07T11:35:08;5.10;90.90
67161;DHT22;54088;52.238;21.104;2022-12-07T11:37:02;5.00;90.70
67161;DHT22;54088;52.238;21.104;2022-12-07T11:39:37;5.00;90.70
67161;DHT22;54088;52.238;21.104;2022-12-07T11:42:16;5.10;90.80
67161;DHT22;54088;52.238;21.104;2022-12-07T11:52:44;5.30;90.70
67161;DHT22;54088;52.238;21.104;2022-12-07T11:55:40;5.40;90.60
67161;DHT22;54088;52.238;21.104;2022-12-07T12:03:37;5.50;90.20
67161;DHT22;54088;52.238;21.104;2022-12-07T12:06:03;5.60;90.20
67161;DHT22;54088;52.238;21.104;2022-12-07T12:08:40;5.60;90.00
67161;DHT22;54088;52.238;21.104;2022-12-07T12:22:54;5.50;89.80
67161;DHT22;54088;52.238;21.104;2022-12-07T12:25:24;5.50;89.60
67161;DHT22;54088;52.238;21.104;2022-12-07T12:27:52;5.40;90.00
67161;DHT22;54088;52.238;21.104;2022-12-07T12:30:31;5.50;90.00
67161;DHT22;54088;52.238;21.104;2022-12-07T12:33:15;5.40;90.30
67161;DHT22;54088;52.238;21.104;2022-12-07T12:35:43;5.30;90.60
67161;DHT22;54088;52.238;21.104;2022-12-07T12:40:53;5.20;91.10
67161;DHT22;54088;52.238;21.104;2022-12-07T12:43:48;5.20;91.10
67161;DHT22;54088;52.238;21.104;2022-12-07T12:47:02;5.20;91.40
67161;DHT22;54088;52.238;21.104;2022-12-07T12:54:28;5.30;91.30
67161;DHT22;54088;52.238;21.104;2022-12-07T12:57:27;5.20;91.30
67161;DHT22;54088;52.238;21.104;2022-12-07T13:04:53;5.00;91.30
67161;DHT22;54088;52.238;21.104;2022-12-07T13:23:31;4.90;91.30
67161;DHT22;54088;52.238;21.104;2022-12-07T13:28:50;4.80;91.20
67161;DHT22;54088;52.238;21.104;2022-12-07T13:31:20;4.80;91.30
67161;DHT22;54088;52.238;21.104;2022-12-07T13:33:48;4.80;91.20
67161;DHT22;54088;52.238;21.104;2022-12-07T13:36:29;4.90;91.10
67161;DHT22;54088;52.238;21.104;2022-12-07T13:39:11;4.80;91.00
67161;DHT22;54088;52.238;21.104;2022-12-07T13:41:44;4.80;91.00
67161;DHT22;54088;52.238;21.104;2022-12-07T13:44:15;4.80;91.00
67161;DHT22;54088;52.238;21.104;2022-12-07T13:46:47;4.80;90.80
67161;DHT22;54088;52.238;21.104;2022-12-07T13:49:24;4.80;90.90
67161;DHT22;54088;52.238;21.104;2022-12-07T13:51:51;4.70;91.00
67161;DHT22;54088;52.238;21.104;2022-12-07T13:54:18;4.80;91.10
67161;DHT22;54088;52.238;21.104;2022-12-07T13:56:46;4.80;91.20
67161;DHT22;54088;52.238;21.104;2022-12-07T13:59:23;4.80;91.20
67161;DHT22;54088;52.238;21.104;2022-12-07T14:01:51;4.70;91.30
67161;DHT22;54088;52.238;21.104;2022-12-07T14:04:35;4.70;91.50
67161;DHT22;54088;52.238;21.104;2022-12-07T14:07:24;4.70;91.60
67161;DHT22;54088;52.238;21.104;2022-12-07T14:11:14;4.60;91.70
67161;DHT22;54088;52.238;21.104;2022-12-07T14:13:37;4.60;91.50
67161;DHT22;54088;52.238;21.104;2022-12-07T14:16:23;4.50;91.70
67161;DHT22;54088;52.238;21.104;2022-12-07T14:18:53;4.40;91.80
67161;DHT22;54088;52.238;21.104;2022-12-07T14:21:22;4.40;91.80
67161;DHT22;54088;52.238;21.104;2022-12-07T14:24:09;4.40;92.00
67161;DHT22;54088;52.238;21.104;2022-12-07T14:26:34;4.30;92.10
67161;DHT22;54088;52.238;21.104;2022-12-07T14:31:52;4.20;91.90
67161;DHT22;54088;52.238;21.104;2022-12-07T14:34:20;4.20;91.80
67161;DHT22;54088;52.238;21.104;2022-12-07T14:36:46;4.10;91.90
67161;DHT22;54088;52.238;21.104;2022-12-07T14:39:12;4.10;91.90
67161;DHT22;54088;52.238;21.104;2022-12-07T14:41:37;4.20;92.00
67161;DHT22;54088;52.238;21.104;2022-12-07T14:44:22;4.20;92.00
67161;DHT22;54088;52.238;21.104;2022-12-07T14:46:49;4.20;91.90
67161;DHT22;54088;52.238;21.104;2022-12-07T14:49:16;4.20;91.80
67161;DHT22;54088;52.238;21.104;2022-12-07T14:51:42;4.20;91.80
67161;DHT22;54088;52.238;21.104;2022-12-07T14:54:19;4.20;91.80
67161;DHT22;54088;52.238;21.104;2022-12-07T14:56:45;4.10;91.70
67161;DHT22;54088;52.238;21.104;2022-12-07T14:59:15;4.10;91.80
67161;DHT22;54088;52.238;21.104;2022-12-07T15:01:40;4.10;91.80
67161;DHT22;54088;52.238;21.104;2022-12-07T15:04:06;4.00;91.90
67161;DHT22;54088;52.238;21.104;2022-12-07T15:06:32;4.00;92.00
67161;DHT22;54088;52.238;21.104;2022-12-07T15:08:57;4.00;92.00
67161;DHT22;54088;52.238;21.104;2022-12-07T15:11:23;4.00;92.10
67161;DHT22;54088;52.238;21.104;2022-12-07T15:13:49;3.90;92.20
67161;DHT22;54088;52.238;21.104;2022-12-07T15:16:33;3.90;92.30
67161;DHT22;54088;52.238;21.104;2022-12-07T15:18:59;3.90;92.20
67161;DHT22;54088;52.238;21.104;2022-12-07T15:21:25;3.90;92.40
67161;DHT22;54088;52.238;21.104;2022-12-07T15:23:51;3.90;92.50
67161;DHT22;54088;52.238;21.104;2022-12-07T15:26:17;3.90;92.50
67161;DHT22;54088;52.238;21.104;2022-12-07T15:28:43;3.90;92.40
67161;DHT22;54088;52.238;21.104;2022-12-07T15:31:15;3.90;92.50
67161;DHT22;54088;52.238;21.104;2022-12-07T15:33:42;3.90;92.60
67161;DHT22;54088;52.238;21.104;2022-12-07T15:36:07;3.80;92.70
67161;DHT22;54088;52.238;21.104;2022-12-07T15:38:34;3.80;92.70
67161;DHT22;54088;52.238;21.104;2022-12-07T15:41:00;3.80;92.80
67161;DHT22;54088;52.238;21.104;2022-12-07T15:43:25;3.80;92.80
67161;DHT22;54088;52.238;21.104;2022-12-07T15:46:09;3.80;92.90
67161;DHT22;54088;52.238;21.104;2022-12-07T15:48:35;3.80;92.90
67161;DHT22;54088;52.238;21.104;2022-12-07T15:51:08;3.80;93.00
67161;DHT22;54088;52.238;21.104;2022-12-07T15:53:34;3.80;93.00
67161;DHT22;54088;52.238;21.104;2022-12-07T15:56:01;3.80;93.00
67161;DHT22;54088;52.238;21.104;2022-12-07T15:58:26;3.70;92.90
67161;DHT22;54088;52.238;21.104;2022-12-07T16:00:52;3.70;93.20
67161;DHT22;54088;52.238;21.104;2022-12-07T16:03:18;3.70;93.30
67161;DHT22;54088;52.238;21.104;2022-12-07T16:05:53;3.60;93.20
67161;DHT22;54088;52.238;21.104;2022-12-07T16:08:19;3.70;93.50
67161;DHT22;54088;52.238;21.104;2022-12-07T16:10:45;3.70;93.40
67161;DHT22;54088;52.238;21.104;2022-12-07T16:13:11;3.80;93.40
67161;DHT22;54088;52.238;21.104;2022-12-07T16:15:40;3.80;93.40
67161;DHT22;54088;52.238;21.104;2022-12-07T16:18:06;3.80;93.40
67161;DHT22;54088;52.238;21.104;2022-12-07T16:20:32;3.80;93.40
67161;DHT22;54088;52.238;21.104;2022-12-07T16:22:58;3.80;93.40
67161;DHT22;54088;52.238;21.104;2022-12-07T16:25:23;3.80;93.40
67161;DHT22;54088;52.238;21.104;2022-12-07T16:27:50;3.80;93.40
67161;DHT22;54088;52.238;21.104;2022-12-07T16:30:16;3.80;93.50
67161;DHT22;54088;52.238;21.104;2022-12-07T16:32:42;3.80;93.50
67161;DHT22;54088;52.238;21.104;2022-12-07T16:35:08;3.80;93.50
67161;DHT22;54088;52.238;21.104;2022-12-07T16:37:34;3.90;93.40
67161;DHT22;54088;52.238;21.104;2022-12-07T16:40:00;3.80;93.40
67161;DHT22;54088;52.238;21.104;2022-12-07T16:42:26;3.90;93.50
67161;DHT22;54088;52.238;21.104;2022-12-07T16:44:52;3.90;93.50
67161;DHT22;54088;52.238;21.104;2022-12-07T16:47:17;3.80;93.50
67161;DHT22;54088;52.238;21.104;2022-12-07T16:49:43;3.90;93.50
67161;DHT22;54088;52.238;21.104;2022-12-07T16:52:08;4.00;93.50
67161;DHT22;54088;52.238;21.104;2022-12-07T16:54:35;4.00;93.30
67161;DHT22;54088;52.238;21.104;2022-12-07T16:57:01;4.00;93.40
67161;DHT22;54088;52.238;21.104;2022-12-07T16:59:27;4.00;93.30
67161;DHT22;54088;52.238;21.104;2022-12-07T17:01:52;4.00;93.40
67161;DHT22;54088;52.238;21.104;2022-12-07T17:04:18;3.90;93.20
67161;DHT22;54088;52.238;21.104;2022-12-07T17:06:43;3.90;93.20
67161;DHT22;54088;52.238;21.104;2022-12-07T17:09:09;4.00;93.20
67161;DHT22;54088;52.238;21.104;2022-12-07T17:11:37;4.00;93.20
67161;DHT22;54088;52.238;21.104;2022-12-07T17:14:02;4.00;93.20
67161;DHT22;54088;52.238;21.104;2022-12-07T17:16:46;4.00;93.20
67161;DHT22;54088;52.238;21.104;2022-12-07T17:19:14;4.00;93.20
67161;DHT22;54088;52.238;21.104;2022-12-07T17:21:41;4.00;93.10
67161;DHT22;54088;52.238;21.104;2022-12-07T17:24:09;4.00;93.00
67161;DHT22;54088;52.238;21.104;2022-12-07T17:26:35;4.00;93.00
67161;DHT22;54088;52.238;21.104;2022-12-07T17:29:02;4.00;93.00
67161;DHT22;54088;52.238;21.104;2022-12-07T17:31:30;4.00;93.00
67161;DHT22;54088;52.238;21.104;2022-12-07T17:33:55;4.00;92.90
67161;DHT22;54088;52.238;21.104;2022-12-07T17:36:23;4.00;92.80
67161;DHT22;54088;52.238;21.104;2022-12-07T17:38:50;4.00;92.80
67161;DHT22;54088;52.238;21.104;2022-12-07T17:41:21;4.00;92.80
67161;DHT22;54088;52.238;21.104;2022-12-07T17:44:11;4.00;92.70
67161;DHT22;54088;52.238;21.104;2022-12-07T17:46:37;4.00;93.00
67161;DHT22;54088;52.238;21.104;2022-12-07T17:49:04;4.00;92.80